sensor_id;sensor_type;location;lat;lon;timestamp;pressure;altitude;pressure_sealevel;temperature;humidity
8286;BME280;4181;43.416;24.598;2023-04-25T00:00:15;98876.53;;;15.06;100.00
8286;BME280;4181;43.416;24.598;2023-04-25T00:02:42;98862.59;;;15.02;100.00
8286;BME280;4181;43.416;24.598;2023-04-25T00:05:07;98860.72;;;14.89;100.00
8286;BME280;4181;43.416;24.598;2023-04-25T00:07:33;98845.47;;;14.97;100.00
8286;BME280;4181;43.416;24.598;2023-04-25T00:10:00;98844.91;;;15.08;100.00
8286;BME280;4181;43.416;24.598;2023-04-25T00:12:26;98852.19;;;14.91;100.00
8286;BME280;4181;43.416;24.598;2023-04-25T00:14:54;98851.06;;;14.92;100.00
8286;BME280;4181;43.416;24.598;2023-04-25T00:17:22;98842.22;;;14.95;100.00
8286;BME280;4181;43.416;24.598;2023-04-25T00:19:50;98827.94;;;14.71;100.00
8286;BME280;4181;43.416;24.598;2023-04-25T00:22:16;98818.09;;;14.70;100.00
8286;BME280;4181;43.416;24.598;2023-04-25T00:24:41;98807.38;;;14.82;100.00
8286;BME280;4181;43.416;24.598;2023-04-25T00:27:07;98809.56;;;14.58;100.00
8286;BME280;4181;43.416;24.598;2023-04-25T00:29:33;98797.53;;;14.67;100.00
8286;BME280;4181;43.416;24.598;2023-04-25T00:31:58;98795.84;;;14.58;100.00
8286;BME280;4181;43.416;24.598;2023-04-25T00:34:24;98800.16;;;14.72;100.00
8286;BME280;4181;43.416;24.598;2023-04-25T00:36:49;98818.72;;;14.89;100.00
8286;BME280;4181;43.416;24.598;2023-04-25T00:39:15;98845.00;;;14.81;100.00
8286;BME280;4181;43.416;24.598;2023-04-25T00:41:40;98845.25;;;14.93;100.00
8286;BME280;4181;43.416;24.598;2023-04-25T00:44:08;98833.00;;;14.77;100.00
8286;BME280;4181;43.416;24.598;2023-04-25T00:46:35;98834.00;;;14.81;100.00
8286;BME280;4181;43.416;24.598;2023-04-25T00:49:01;98824.34;;;15.06;100.00
8286;BME280;4181;43.416;24.598;2023-04-25T00:51:26;98833.16;;;15.16;100.00
8286;BME280;4181;43.416;24.598;2023-04-25T00:53:52;98844.72;;;15.27;100.00
8286;BME280;4181;43.416;24.598;2023-04-25T00:56:18;98866.06;;;15.08;100.00
8286;BME280;4181;43.416;24.598;2023-04-25T00:58:45;98881.16;;;15.19;100.00
8286;BME280;4181;43.416;24.598;2023-04-25T01:01:11;98884.69;;;15.33;100.00
8286;BME280;4181;43.416;24.598;2023-04-25T01:03:38;98884.69;;;15.55;100.00
8286;BME280;4181;43.416;24.598;2023-04-25T01:06:08;98883.88;;;15.55;100.00
8286;BME280;4181;43.416;24.598;2023-04-25T01:08:34;98890.66;;;15.57;100.00
8286;BME280;4181;43.416;24.598;2023-04-25T01:11:00;98889.44;;;15.63;100.00
8286;BME280;4181;43.416;24.598;2023-04-25T01:13:25;98894.03;;;15.76;100.00
8286;BME280;4181;43.416;24.598;2023-04-25T01:15:51;98902.66;;;15.83;100.00
8286;BME280;4181;43.416;24.598;2023-04-25T01:18:16;98908.53;;;15.90;100.00
8286;BME280;4181;43.416;24.598;2023-04-25T01:20:43;98924.63;;;16.05;100.00
8286;BME280;4181;43.416;24.598;2023-04-25T01:23:10;98928.53;;;16.13;100.00
8286;BME280;4181;43.416;24.598;2023-04-25T01:25:36;98919.78;;;16.11;100.00
8286;BME280;4181;43.416;24.598;2023-04-25T01:28:02;98910.59;;;16.15;100.00
8286;BME280;4181;43.416;24.598;2023-04-25T01:30:28;98909.66;;;16.28;100.00
8286;BME280;4181;43.416;24.598;2023-04-25T01:32:57;98917.78;;;16.33;100.00
8286;BME280;4181;43.416;24.598;2023-04-25T01:35:24;98922.97;;;16.35;100.00
8286;BME280;4181;43.416;24.598;2023-04-25T01:37:51;98909.91;;;16.49;100.00
8286;BME280;4181;43.416;24.598;2023-04-25T01:40:17;98895.38;;;16.57;100.00
8286;BME280;4181;43.416;24.598;2023-04-25T01:42:44;98889.69;;;16.54;100.00
8286;BME280;4181;43.416;24.598;2023-04-25T01:45:10;98885.88;;;16.32;100.00
8286;BME280;4181;43.416;24.598;2023-04-25T01:47:38;98890.19;;;16.16;100.00
8286;BME280;4181;43.416;24.598;2023-04-25T01:50:05;98869.63;;;16.22;100.00
8286;BME280;4181;43.416;24.598;2023-04-25T01:52:32;98883.13;;;16.32;100.00
8286;BME280;4181;43.416;24.598;2023-04-25T01:55:00;98861.19;;;16.50;100.00
8286;BME280;4181;43.416;24.598;2023-04-25T01:57:26;98847.53;;;16.44;100.00
8286;BME280;4181;43.416;24.598;2023-04-25T01:59:55;98848.81;;;16.38;100.00
8286;BME280;4181;43.416;24.598;2023-04-25T02:02:23;98855.41;;;16.29;100.00
8286;BME280;4181;43.416;24.598;2023-04-25T02:04:49;98878.91;;;15.96;100.00
8286;BME280;4181;43.416;24.598;2023-04-25T02:07:15;98867.28;;;15.90;100.00
8286;BME280;4181;43.416;24.598;2023-04-25T02:09:41;98856.94;;;15.65;100.00
8286;BME280;4181;43.416;24.598;2023-04-25T02:12:09;98856.63;;;15.67;100.00
8286;BME280;4181;43.416;24.598;2023-04-25T02:14:34;98846.13;;;15.69;100.00
8286;BME280;4181;43.416;24.598;2023-04-25T02:17:00;98837.47;;;15.53;100.00
8286;BME280;4181;43.416;24.598;2023-04-25T02:19:25;98827.88;;;15.42;100.00
8286;BME280;4181;43.416;24.598;2023-04-25T02:21:51;98827.78;;;15.34;100.00
8286;BME280;4181;43.416;24.598;2023-04-25T02:24:16;98807.00;;;15.41;100.00
8286;BME280;4181;43.416;24.598;2023-04-25T02:26:42;98815.28;;;15.50;100.00
8286;BME280;4181;43.416;24.598;2023-04-25T02:29:07;98825.13;;;15.42;100.00
8286;BME280;4181;43.416;24.598;2023-04-25T02:31:32;98810.94;;;15.57;100.00
8286;BME280;4181;43.416;24.598;2023-04-25T02:33:58;98814.94;;;15.73;100.00
8286;BME280;4181;43.416;24.598;2023-04-25T02:36:23;98803.66;;;15.83;100.00
8286;BME280;4181;43.416;24.598;2023-04-25T02:38:49;98825.38;;;15.63;100.00
8286;BME280;4181;43.416;24.598;2023-04-25T02:41:15;98821.91;;;15.79;100.00
8286;BME280;4181;43.416;24.598;2023-04-25T02:43:40;98828.75;;;15.90;100.00
8286;BME280;4181;43.416;24.598;2023-04-25T02:46:07;98834.91;;;15.96;100.00
8286;BME280;4181;43.416;24.598;2023-04-25T02:48:33;98845.13;;;15.95;100.00
8286;BME280;4181;43.416;24.598;2023-04-25T02:50:58;98849.63;;;15.91;100.00
8286;BME280;4181;43.416;24.598;2023-04-25T02:53:23;98851.09;;;15.89;100.00
8286;BME280;4181;43.416;24.598;2023-04-25T02:55:49;98853.00;;;15.88;100.00
8286;BME280;4181;43.416;24.598;2023-04-25T02:58:14;98845.22;;;15.82;100.00
8286;BME280;4181;43.416;24.598;2023-04-25T03:00:40;98845.41;;;15.85;100.00
8286;BME280;4181;43.416;24.598;2023-04-25T03:03:06;98842.50;;;15.90;100.00
8286;BME280;4181;43.416;24.598;2023-04-25T03:05:31;98832.41;;;15.77;100.00
8286;BME280;4181;43.416;24.598;2023-04-25T03:07:57;98836.06;;;15.64;100.00
8286;BME280;4181;43.416;24.598;2023-04-25T03:10:22;98840.03;;;15.80;100.00
8286;BME280;4181;43.416;24.598;2023-04-25T03:12:48;98842.66;;;15.85;100.00
8286;BME280;4181;43.416;24.598;2023-04-25T03:15:13;98843.75;;;15.84;100.00
8286;BME280;4181;43.416;24.598;2023-04-25T03:17:38;98849.00;;;15.64;100.00
8286;BME280;4181;43.416;24.598;2023-04-25T03:20:04;98848.66;;;15.57;100.00
8286;BME280;4181;43.416;24.598;2023-04-25T03:22:30;98838.94;;;15.59;100.00
8286;BME280;4181;43.416;24.598;2023-04-25T03:24:56;98831.44;;;15.73;100.00
8286;BME280;4181;43.416;24.598;2023-04-25T03:27:21;98853.34;;;15.87;100.00
8286;BME280;4181;43.416;24.598;2023-04-25T03:29:47;98852.50;;;15.86;100.00
8286;BME280;4181;43.416;24.598;2023-04-25T03:32:12;98853.97;;;15.84;100.00
8286;BME280;4181;43.416;24.598;2023-04-25T03:34:38;98847.84;;;15.87;100.00
8286;BME280;4181;43.416;24.598;2023-04-25T03:37:03;98837.91;;;15.77;100.00
8286;BME280;4181;43.416;24.598;2023-04-25T03:39:28;98823.88;;;15.87;100.00
8286;BME280;4181;43.416;24.598;2023-04-25T03:41:54;98802.38;;;15.89;100.00
8286;BME280;4181;43.416;24.598;2023-04-25T03:44:20;98801.28;;;16.07;100.00
8286;BME280;4181;43.416;24.598;2023-04-25T03:46:45;98804.56;;;16.18;100.00
8286;BME280;4181;43.416;24.598;2023-04-25T03:49:11;98796.16;;;16.23;100.00
8286;BME280;4181;43.416;24.598;2023-04-25T03:51:36;98803.78;;;16.34;100.00
8286;BME280;4181;43.416;24.598;2023-04-25T03:54:02;98809.63;;;16.41;100.00
8286;BME280;4181;43.416;24.598;2023-04-25T03:56:27;98821.81;;;16.49;100.00
8286;BME280;4181;43.416;24.598;2023-04-25T03:58:53;98822.16;;;16.56;100.00
8286;BME280;4181;43.416;24.598;2023-04-25T04:01:19;98818.75;;;16.59;100.00
8286;BME280;4181;43.416;24.598;2023-04-25T04:03:44;98810.34;;;16.56;100.00
8286;BME280;4181;43.416;24.598;2023-04-25T04:06:10;98801.59;;;16.54;100.00
8286;BME280;4181;43.416;24.598;2023-04-25T04:08:35;98815.22;;;16.59;100.00
8286;BME280;4181;43.416;24.598;2023-04-25T04:11:01;98819.06;;;16.58;100.00
8286;BME280;4181;43.416;24.598;2023-04-25T04:13:27;98846.00;;;16.61;100.00
8286;BME280;4181;43.416;24.598;2023-04-25T04:15:52;98866.03;;;16.53;100.00
8286;BME280;4181;43.416;24.598;2023-04-25T04:18:18;98876.59;;;16.51;100.00
8286;BME280;4181;43.416;24.598;2023-04-25T04:20:44;98862.66;;;16.47;100.00
8286;BME280;4181;43.416;24.598;2023-04-25T04:23:09;98875.13;;;16.62;100.00
8286;BME280;4181;43.416;24.598;2023-04-25T04:25:36;98883.59;;;16.74;100.00
8286;BME280;4181;43.416;24.598;2023-04-25T04:28:02;98889.28;;;16.77;100.00
8286;BME280;4181;43.416;24.598;2023-04-25T04:30:27;98884.22;;;16.79;100.00
8286;BME280;4181;43.416;24.598;2023-04-25T04:32:56;98865.78;;;16.97;100.00
8286;BME280;4181;43.416;24.598;2023-04-25T04:35:22;98886.53;;;17.03;100.00
8286;BME280;4181;43.416;24.598;2023-04-25T04:37:48;98874.84;;;17.06;100.00
8286;BME280;4181;43.416;24.598;2023-04-25T04:40:14;98880.84;;;17.08;100.00
8286;BME280;4181;43.416;24.598;2023-04-25T04:42:42;98901.47;;;17.19;100.00
8286;BME280;4181;43.416;24.598;2023-04-25T04:45:09;98899.97;;;17.30;100.00
8286;BME280;4181;43.416;24.598;2023-04-25T04:47:35;98906.81;;;17.32;100.00
8286;BME280;4181;43.416;24.598;2023-04-25T04:50:03;98908.59;;;17.28;100.00
8286;BME280;4181;43.416;24.598;2023-04-25T04:52:29;98919.78;;;17.32;100.00
8286;BME280;4181;43.416;24.598;2023-04-25T04:54:55;98914.09;;;17.37;100.00
8286;BME280;4181;43.416;24.598;2023-04-25T04:57:20;98900.94;;;17.42;100.00
8286;BME280;4181;43.416;24.598;2023-04-25T04:59:46;98898.19;;;17.42;100.00
8286;BME280;4181;43.416;24.598;2023-04-25T05:02:11;98881.50;;;17.56;100.00
8286;BME280;4181;43.416;24.598;2023-04-25T05:04:37;98867.19;;;17.62;100.00
8286;BME280;4181;43.416;24.598;2023-04-25T05:07:02;98856.81;;;17.68;100.00
8286;BME280;4181;43.416;24.598;2023-04-25T05:09:27;98858.28;;;17.74;100.00
8286;BME280;4181;43.416;24.598;2023-04-25T05:11:53;98868.16;;;17.75;100.00
8286;BME280;4181;43.416;24.598;2023-04-25T05:14:18;98859.88;;;17.75;100.00
8286;BME280;4181;43.416;24.598;2023-04-25T05:16:44;98874.94;;;17.78;100.00
8286;BME280;4181;43.416;24.598;2023-04-25T05:19:09;98884.88;;;17.79;100.00
8286;BME280;4181;43.416;24.598;2023-04-25T05:21:35;98905.59;;;17.85;100.00
8286;BME280;4181;43.416;24.598;2023-04-25T05:24:01;98917.28;;;17.90;100.00
8286;BME280;4181;43.416;24.598;2023-04-25T05:26:27;98915.69;;;17.89;100.00
8286;BME280;4181;43.416;24.598;2023-04-25T05:28:57;98929.44;;;17.98;100.00
8286;BME280;4181;43.416;24.598;2023-04-25T05:31:22;98941.78;;;18.00;100.00
8286;BME280;4181;43.416;24.598;2023-04-25T05:33:47;98946.16;;;18.01;100.00
8286;BME280;4181;43.416;24.598;2023-04-25T05:36:13;98940.28;;;18.11;100.00
8286;BME280;4181;43.416;24.598;2023-04-25T05:38:38;98944.50;;;18.17;100.00
8286;BME280;4181;43.416;24.598;2023-04-25T05:41:04;98940.19;;;18.45;100.00
8286;BME280;4181;43.416;24.598;2023-04-25T05:43:29;98919.00;;;18.87;100.00
8286;BME280;4181;43.416;24.598;2023-04-25T05:45:55;98946.72;;;19.20;100.00
8286;BME280;4181;43.416;24.598;2023-04-25T05:48:20;98961.66;;;19.27;100.00
8286;BME280;4181;43.416;24.598;2023-04-25T05:50:46;98984.66;;;19.19;100.00
8286;BME280;4181;43.416;24.598;2023-04-25T05:53:11;98990.13;;;19.28;100.00
8286;BME280;4181;43.416;24.598;2023-04-25T05:55:36;98979.91;;;19.20;100.00
8286;BME280;4181;43.416;24.598;2023-04-25T05:58:02;98981.00;;;19.36;100.00
8286;BME280;4181;43.416;24.598;2023-04-25T06:00:27;98972.88;;;19.72;100.00
8286;BME280;4181;43.416;24.598;2023-04-25T06:02:53;98982.00;;;20.05;100.00
8286;BME280;4181;43.416;24.598;2023-04-25T06:05:19;98980.53;;;20.52;100.00
8286;BME280;4181;43.416;24.598;2023-04-25T06:07:45;98982.41;;;20.84;100.00
8286;BME280;4181;43.416;24.598;2023-04-25T06:10:10;98994.31;;;20.73;100.00
8286;BME280;4181;43.416;24.598;2023-04-25T06:12:36;99000.19;;;20.95;100.00
8286;BME280;4181;43.416;24.598;2023-04-25T06:15:01;99008.03;;;20.93;100.00
8286;BME280;4181;43.416;24.598;2023-04-25T06:17:27;99006.69;;;20.99;100.00
8286;BME280;4181;43.416;24.598;2023-04-25T06:19:52;99015.22;;;21.30;100.00
8286;BME280;4181;43.416;24.598;2023-04-25T06:22:18;99015.50;;;21.53;100.00
8286;BME280;4181;43.416;24.598;2023-04-25T06:24:43;99006.81;;;21.79;100.00
8286;BME280;4181;43.416;24.598;2023-04-25T06:27:09;98998.81;;;22.05;100.00
8286;BME280;4181;43.416;24.598;2023-04-25T06:29:34;98995.97;;;22.44;100.00
8286;BME280;4181;43.416;24.598;2023-04-25T06:32:00;98985.91;;;22.40;100.00
8286;BME280;4181;43.416;24.598;2023-04-25T06:34:25;98995.81;;;22.69;100.00
8286;BME280;4181;43.416;24.598;2023-04-25T06:36:51;99005.97;;;22.61;100.00
8286;BME280;4181;43.416;24.598;2023-04-25T06:39:16;99001.56;;;22.76;100.00
8286;BME280;4181;43.416;24.598;2023-04-25T06:41:42;99007.22;;;22.79;100.00
8286;BME280;4181;43.416;24.598;2023-04-25T06:44:07;99001.31;;;22.81;100.00
8286;BME280;4181;43.416;24.598;2023-04-25T06:46:32;99004.28;;;23.03;100.00
8286;BME280;4181;43.416;24.598;2023-04-25T06:48:58;99009.00;;;22.72;100.00
8286;BME280;4181;43.416;24.598;2023-04-25T06:51:23;99011.06;;;23.06;100.00
8286;BME280;4181;43.416;24.598;2023-04-25T06:53:49;99014.41;;;23.11;100.00
8286;BME280;4181;43.416;24.598;2023-04-25T06:56:15;99004.31;;;23.22;100.00
8286;BME280;4181;43.416;24.598;2023-04-25T06:58:41;99008.06;;;23.45;100.00
8286;BME280;4181;43.416;24.598;2023-04-25T07:01:06;99004.88;;;23.62;100.00
8286;BME280;4181;43.416;24.598;2023-04-25T07:03:32;99008.22;;;23.52;100.00
8286;BME280;4181;43.416;24.598;2023-04-25T07:05:57;99008.84;;;23.61;100.00
8286;BME280;4181;43.416;24.598;2023-04-25T07:08:23;99008.56;;;23.86;100.00
8286;BME280;4181;43.416;24.598;2023-04-25T07:10:48;99012.91;;;24.02;100.00
8286;BME280;4181;43.416;24.598;2023-04-25T07:13:14;99015.63;;;24.18;100.00
8286;BME280;4181;43.416;24.598;2023-04-25T07:15:39;99004.31;;;24.30;100.00
8286;BME280;4181;43.416;24.598;2023-04-25T07:18:04;99005.28;;;24.60;100.00
8286;BME280;4181;43.416;24.598;2023-04-25T07:20:30;98993.00;;;24.87;100.00
8286;BME280;4181;43.416;24.598;2023-04-25T07:22:56;99019.13;;;24.75;100.00
8286;BME280;4181;43.416;24.598;2023-04-25T07:25:22;99012.09;;;24.40;100.00
8286;BME280;4181;43.416;24.598;2023-04-25T07:27:47;99038.47;;;23.89;100.00
8286;BME280;4181;43.416;24.598;2023-04-25T07:30:13;99035.91;;;23.45;100.00
8286;BME280;4181;43.416;24.598;2023-04-25T07:32:39;99033.50;;;23.28;100.00
8286;BME280;4181;43.416;24.598;2023-04-25T07:35:05;99036.25;;;23.44;100.00
8286;BME280;4181;43.416;24.598;2023-04-25T07:37:32;99026.06;;;23.32;100.00
8286;BME280;4181;43.416;24.598;2023-04-25T07:39:58;99031.78;;;23.39;100.00
8286;BME280;4181;43.416;24.598;2023-04-25T07:42:23;99014.56;;;23.88;100.00
8286;BME280;4181;43.416;24.598;2023-04-25T07:44:49;99011.34;;;24.24;100.00
8286;BME280;4181;43.416;24.598;2023-04-25T07:47:15;99017.97;;;24.35;100.00
8286;BME280;4181;43.416;24.598;2023-04-25T07:49:40;99006.13;;;24.64;100.00
8286;BME280;4181;43.416;24.598;2023-04-25T07:52:06;99004.31;;;24.94;100.00
8286;BME280;4181;43.416;24.598;2023-04-25T07:54:31;99003.47;;;25.16;100.00
8286;BME280;4181;43.416;24.598;2023-04-25T07:56:57;99012.81;;;25.01;100.00
8286;BME280;4181;43.416;24.598;2023-04-25T07:59:23;99010.03;;;24.78;100.00
8286;BME280;4181;43.416;24.598;2023-04-25T08:01:49;99002.38;;;24.98;100.00
8286;BME280;4181;43.416;24.598;2023-04-25T08:04:15;98990.09;;;25.29;100.00
8286;BME280;4181;43.416;24.598;2023-04-25T08:06:40;98994.13;;;25.57;100.00
8286;BME280;4181;43.416;24.598;2023-04-25T08:09:06;98994.72;;;25.70;100.00
8286;BME280;4181;43.416;24.598;2023-04-25T08:11:32;98999.69;;;25.83;100.00
8286;BME280;4181;43.416;24.598;2023-04-25T08:13:57;98998.34;;;25.70;100.00
8286;BME280;4181;43.416;24.598;2023-04-25T08:16:23;99002.78;;;25.75;100.00
8286;BME280;4181;43.416;24.598;2023-04-25T08:18:50;99009.13;;;25.72;100.00
8286;BME280;4181;43.416;24.598;2023-04-25T08:21:15;99019.94;;;25.73;100.00
8286;BME280;4181;43.416;24.598;2023-04-25T08:23:41;99006.22;;;25.94;100.00
8286;BME280;4181;43.416;24.598;2023-04-25T08:26:06;99009.28;;;26.15;100.00
8286;BME280;4181;43.416;24.598;2023-04-25T08:28:32;98995.50;;;26.30;100.00
8286;BME280;4181;43.416;24.598;2023-04-25T08:30:57;99007.28;;;26.12;100.00
8286;BME280;4181;43.416;24.598;2023-04-25T08:33:23;99003.03;;;25.96;100.00
8286;BME280;4181;43.416;24.598;2023-04-25T08:35:48;99006.50;;;25.56;100.00
8286;BME280;4181;43.416;24.598;2023-04-25T08:38:14;99026.31;;;24.99;100.00
8286;BME280;4181;43.416;24.598;2023-04-25T08:40:40;99010.72;;;25.21;100.00
8286;BME280;4181;43.416;24.598;2023-04-25T08:43:06;99022.44;;;25.07;100.00
8286;BME280;4181;43.416;24.598;2023-04-25T08:45:38;99014.88;;;25.30;100.00
8286;BME280;4181;43.416;24.598;2023-04-25T08:48:05;99012.91;;;25.08;100.00
8286;BME280;4181;43.416;24.598;2023-04-25T08:50:33;99021.06;;;24.71;100.00
8286;BME280;4181;43.416;24.598;2023-04-25T08:53:00;99018.03;;;24.38;100.00
8286;BME280;4181;43.416;24.598;2023-04-25T08:55:29;99038.75;;;24.18;100.00
8286;BME280;4181;43.416;24.598;2023-04-25T08:57:56;99042.78;;;24.02;100.00
8286;BME280;4181;43.416;24.598;2023-04-25T09:00:22;99049.81;;;23.80;100.00
8286;BME280;4181;43.416;24.598;2023-04-25T09:02:48;99040.53;;;23.92;100.00
8286;BME280;4181;43.416;24.598;2023-04-25T09:05:14;99031.75;;;24.09;100.00
8286;BME280;4181;43.416;24.598;2023-04-25T09:07:39;99036.72;;;24.19;100.00
8286;BME280;4181;43.416;24.598;2023-04-25T09:10:05;99032.63;;;24.13;100.00
8286;BME280;4181;43.416;24.598;2023-04-25T09:12:31;99031.38;;;24.10;100.00
8286;BME280;4181;43.416;24.598;2023-04-25T09:15:08;99030.66;;;24.13;100.00
8286;BME280;4181;43.416;24.598;2023-04-25T09:17:34;99039.69;;;24.07;100.00
8286;BME280;4181;43.416;24.598;2023-04-25T09:20:11;99026.47;;;24.04;100.00
8286;BME280;4181;43.416;24.598;2023-04-25T09:22:37;99033.22;;;24.03;100.00
8286;BME280;4181;43.416;24.598;2023-04-25T09:25:07;99020.59;;;24.09;100.00
8286;BME280;4181;43.416;24.598;2023-04-25T09:27:33;99012.84;;;24.59;100.00
8286;BME280;4181;43.416;24.598;2023-04-25T09:30:00;99017.09;;;24.95;100.00
8286;BME280;4181;43.416;24.598;2023-04-25T09:32:26;99009.19;;;25.49;100.00
8286;BME280;4181;43.416;24.598;2023-04-25T09:34:56;98992.19;;;25.91;100.00
8286;BME280;4181;43.416;24.598;2023-04-25T09:37:27;98988.38;;;26.02;100.00
8286;BME280;4181;43.416;24.598;2023-04-25T09:39:57;99002.72;;;25.71;100.00
8286;BME280;4181;43.416;24.598;2023-04-25T09:42:26;99016.81;;;25.52;100.00
8286;BME280;4181;43.416;24.598;2023-04-25T09:44:53;99016.63;;;25.16;100.00
8286;BME280;4181;43.416;24.598;2023-04-25T09:47:19;99009.13;;;24.97;100.00
8286;BME280;4181;43.416;24.598;2023-04-25T09:49:47;99015.97;;;24.99;100.00
8286;BME280;4181;43.416;24.598;2023-04-25T09:52:15;99021.81;;;25.17;100.00
8286;BME280;4181;43.416;24.598;2023-04-25T09:54:41;99016.34;;;25.24;100.00
8286;BME280;4181;43.416;24.598;2023-04-25T09:57:21;99020.34;;;25.23;100.00
8286;BME280;4181;43.416;24.598;2023-04-25T09:59:52;99027.19;;;25.03;100.00
8286;BME280;4181;43.416;24.598;2023-04-25T10:02:19;99022.94;;;24.86;100.00
8286;BME280;4181;43.416;24.598;2023-04-25T10:04:51;99031.16;;;24.38;100.00
8286;BME280;4181;43.416;24.598;2023-04-25T10:07:25;99027.00;;;24.28;100.00
8286;BME280;4181;43.416;24.598;2023-04-25T10:10:01;99026.09;;;24.24;100.00
8286;BME280;4181;43.416;24.598;2023-04-25T10:12:28;99010.41;;;24.58;100.00
8286;BME280;4181;43.416;24.598;2023-04-25T10:14:55;99007.09;;;24.94;100.00
8286;BME280;4181;43.416;24.598;2023-04-25T10:17:20;99003.34;;;25.09;100.00
8286;BME280;4181;43.416;24.598;2023-04-25T10:19:47;98974.94;;;24.77;100.00
8286;BME280;4181;43.416;24.598;2023-04-25T10:22:18;98987.72;;;24.78;100.00
8286;BME280;4181;43.416;24.598;2023-04-25T10:24:46;98997.31;;;24.81;100.00
8286;BME280;4181;43.416;24.598;2023-04-25T10:27:12;98984.81;;;24.97;100.00
8286;BME280;4181;43.416;24.598;2023-04-25T10:29:38;98978.28;;;25.35;100.00
8286;BME280;4181;43.416;24.598;2023-04-25T10:32:04;98983.22;;;25.45;100.00
8286;BME280;4181;43.416;24.598;2023-04-25T10:34:41;98984.56;;;25.32;100.00
8286;BME280;4181;43.416;24.598;2023-04-25T10:37:10;98984.88;;;25.50;100.00
8286;BME280;4181;43.416;24.598;2023-04-25T10:39:38;98975.66;;;25.23;100.00
8286;BME280;4181;43.416;24.598;2023-04-25T10:42:05;98962.41;;;25.72;100.00
8286;BME280;4181;43.416;24.598;2023-04-25T10:44:33;98963.06;;;25.62;100.00
8286;BME280;4181;43.416;24.598;2023-04-25T10:47:01;98970.75;;;25.39;100.00
8286;BME280;4181;43.416;24.598;2023-04-25T10:49:57;98970.72;;;25.13;100.00
8286;BME280;4181;43.416;24.598;2023-04-25T10:52:32;98968.78;;;24.91;100.00
8286;BME280;4181;43.416;24.598;2023-04-25T10:54:58;98976.06;;;24.54;100.00
8286;BME280;4181;43.416;24.598;2023-04-25T10:57:40;98978.38;;;24.07;100.00
8286;BME280;4181;43.416;24.598;2023-04-25T11:02:37;98995.03;;;23.68;100.00
8286;BME280;4181;43.416;24.598;2023-04-25T11:05:03;99000.31;;;23.54;100.00
8286;BME280;4181;43.416;24.598;2023-04-25T11:07:31;99002.13;;;23.47;100.00
8286;BME280;4181;43.416;24.598;2023-04-25T11:10:01;99009.63;;;23.27;100.00
8286;BME280;4181;43.416;24.598;2023-04-25T11:12:30;98997.94;;;23.22;100.00
8286;BME280;4181;43.416;24.598;2023-04-25T11:15:03;98997.69;;;23.11;100.00
8286;BME280;4181;43.416;24.598;2023-04-25T11:17:29;99002.00;;;23.09;100.00
8286;BME280;4181;43.416;24.598;2023-04-25T11:19:55;98997.63;;;23.08;100.00
8286;BME280;4181;43.416;24.598;2023-04-25T11:22:22;98993.19;;;23.38;100.00
8286;BME280;4181;43.416;24.598;2023-04-25T11:24:49;98977.31;;;23.96;100.00
8286;BME280;4181;43.416;24.598;2023-04-25T11:27:15;98966.16;;;24.34;100.00
8286;BME280;4181;43.416;24.598;2023-04-25T11:29:41;98966.56;;;24.55;100.00
8286;BME280;4181;43.416;24.598;2023-04-25T11:32:10;98963.53;;;24.67;100.00
8286;BME280;4181;43.416;24.598;2023-04-25T11:34:35;98950.75;;;24.85;100.00
8286;BME280;4181;43.416;24.598;2023-04-25T11:37:02;98951.97;;;25.14;100.00
8286;BME280;4181;43.416;24.598;2023-04-25T11:39:28;98953.88;;;25.06;100.00
8286;BME280;4181;43.416;24.598;2023-04-25T11:41:54;98954.63;;;25.03;100.00
8286;BME280;4181;43.416;24.598;2023-04-25T11:44:21;98947.75;;;25.23;100.00
8286;BME280;4181;43.416;24.598;2023-04-25T11:46:47;98945.13;;;25.08;100.00
8286;BME280;4181;43.416;24.598;2023-04-25T11:49:13;98957.75;;;24.75;100.00
8286;BME280;4181;43.416;24.598;2023-04-25T11:51:46;98945.75;;;24.97;100.00
8286;BME280;4181;43.416;24.598;2023-04-25T11:54:12;98943.47;;;25.03;100.00
8286;BME280;4181;43.416;24.598;2023-04-25T11:56:41;98951.41;;;24.56;100.00
8286;BME280;4181;43.416;24.598;2023-04-25T11:59:07;98940.25;;;24.56;100.00
8286;BME280;4181;43.416;24.598;2023-04-25T12:01:37;98944.34;;;24.39;100.00
8286;BME280;4181;43.416;24.598;2023-04-25T12:04:20;98934.81;;;24.63;100.00
8286;BME280;4181;43.416;24.598;2023-04-25T12:06:47;98933.09;;;24.55;100.00
8286;BME280;4181;43.416;24.598;2023-04-25T12:09:14;98940.00;;;24.64;100.00
8286;BME280;4181;43.416;24.598;2023-04-25T12:12:00;98925.69;;;24.66;100.00
8286;BME280;4181;43.416;24.598;2023-04-25T12:14:30;98927.59;;;24.62;100.00
8286;BME280;4181;43.416;24.598;2023-04-25T12:17:01;98925.28;;;24.41;100.00
8286;BME280;4181;43.416;24.598;2023-04-25T12:19:34;98927.31;;;24.44;100.00
8286;BME280;4181;43.416;24.598;2023-04-25T12:22:10;98926.56;;;24.47;100.00
8286;BME280;4181;43.416;24.598;2023-04-25T12:24:44;98939.50;;;23.95;100.00
8286;BME280;4181;43.416;24.598;2023-04-25T12:27:10;98938.84;;;23.63;100.00
8286;BME280;4181;43.416;24.598;2023-04-25T12:29:35;98944.78;;;23.61;100.00
8286;BME280;4181;43.416;24.598;2023-04-25T12:32:01;98943.28;;;23.48;100.00
8286;BME280;4181;43.416;24.598;2023-04-25T12:34:27;98946.94;;;23.33;100.00
8286;BME280;4181;43.416;24.598;2023-04-25T12:36:53;98975.75;;;23.25;100.00
8286;BME280;4181;43.416;24.598;2023-04-25T12:39:23;99022.91;;;22.72;100.00
8286;BME280;4181;43.416;24.598;2023-04-25T12:41:49;99039.22;;;22.30;100.00
8286;BME280;4181;43.416;24.598;2023-04-25T12:44:15;99085.06;;;21.45;100.00
8286;BME280;4181;43.416;24.598;2023-04-25T12:46:41;99078.91;;;20.46;100.00
8286;BME280;4181;43.416;24.598;2023-04-25T12:49:07;99116.59;;;19.77;100.00
8286;BME280;4181;43.416;24.598;2023-04-25T12:51:34;99102.47;;;19.49;100.00
8286;BME280;4181;43.416;24.598;2023-04-25T12:54:00;99092.59;;;19.31;100.00
8286;BME280;4181;43.416;24.598;2023-04-25T12:56:26;99093.66;;;19.10;100.00
8286;BME280;4181;43.416;24.598;2023-04-25T12:58:52;99080.72;;;18.21;100.00